createdAt,value
2017-04-11T00:00:16.603Z,0
2017-04-11T00:01:16.625Z,0
2017-04-11T00:02:16.643Z,0
2017-04-11T00:03:16.664Z,0
2017-04-11T00:04:30.998Z,0
2017-04-11T00:05:16.705Z,0
2017-04-11T00:06:16.730Z,0
2017-04-11T00:07:16.749Z,0
2017-04-11T00:08:31.380Z,0
2017-04-11T00:09:16.790Z,0
2017-04-11T00:10:16.808Z,0
2017-04-11T00:11:16.825Z,0
2017-04-11T00:12:17.248Z,0
2017-04-11T00:13:16.865Z,0
2017-04-11T00:14:16.944Z,0
2017-04-11T00:15:16.908Z,0
2017-04-11T00:16:31.543Z,0
2017-04-11T00:17:16.949Z,0
2017-04-11T00:18:16.666Z,0
2017-04-11T00:20:17.011Z,0
2017-04-11T00:22:17.051Z,0
2017-04-11T00:23:31.384Z,0
2017-04-11T00:24:17.093Z,0
2017-04-11T00:25:17.109Z,0
2017-04-11T00:26:16.825Z,0
2017-04-11T00:27:17.149Z,0
2017-04-11T00:28:17.171Z,0
2017-04-11T00:29:17.191Z,0
2017-04-11T00:30:17.209Z,0
2017-04-11T00:31:17.234Z,0
2017-04-11T00:32:17.249Z,0
2017-04-11T00:33:17.272Z,0
2017-04-11T00:35:31.928Z,0
2017-04-11T00:36:31.947Z,0
2017-04-11T00:37:17.353Z,0
2017-04-11T00:38:17.375Z,0
2017-04-11T00:39:17.390Z,0
2017-04-11T00:40:17.732Z,0
2017-04-11T00:41:17.131Z,0
2017-04-11T00:42:17.152Z,0
2017-04-11T00:43:17.473Z,0
2017-04-11T00:44:17.492Z,0
2017-04-11T00:45:17.511Z,0
2017-04-11T00:46:17.534Z,0
2017-04-11T00:47:17.553Z,0
2017-04-11T00:48:17.272Z,0
2017-04-11T00:49:17.289Z,0
2017-04-11T00:50:17.613Z,0
2017-04-11T00:51:17.634Z,0
2017-04-11T00:53:17.669Z,0
2017-04-11T00:54:17.693Z,0
2017-04-11T00:55:32.326Z,0
2017-04-11T00:56:17.730Z,0
2017-04-11T00:57:17.749Z,0
2017-04-11T00:58:17.775Z,0
2017-04-11T00:59:17.789Z,0
2017-04-11T01:00:17.811Z,0
2017-04-11T01:01:32.449Z,0
2017-04-11T01:02:17.851Z,0
2017-04-11T01:03:17.867Z,0
2017-04-11T01:04:17.591Z,0
2017-04-11T01:05:17.908Z,0
2017-04-11T01:06:17.928Z,0
2017-04-11T01:07:32.567Z,0
2017-04-11T01:08:17.973Z,0
2017-04-11T01:10:18.011Z,0
2017-04-11T01:11:32.643Z,0
2017-04-11T01:12:18.049Z,0
2017-04-11T01:13:18.065Z,0
2017-04-11T01:14:18.092Z,0
2017-04-11T01:15:18.110Z,0
2017-04-11T01:16:18.144Z,0
2017-04-11T01:17:17.843Z,0
2017-04-11T01:18:18.172Z,0
2017-04-11T01:19:18.194Z,0
2017-04-11T01:20:18.205Z,0
2017-04-11T01:21:18.227Z,0
2017-04-11T01:22:18.248Z,0
2017-04-11T01:23:32.883Z,0
2017-04-11T01:24:18.287Z,0
2017-04-11T01:25:18.307Z,0
2017-04-11T01:26:18.328Z,0
2017-04-11T01:27:32.960Z,0
2017-04-11T01:28:18.370Z,0
2017-04-11T01:29:18.389Z,0
2017-04-11T01:30:18.404Z,0
2017-04-11T01:32:18.141Z,0
2017-04-11T01:33:18.172Z,0
2017-04-11T01:34:18.184Z,0
2017-04-11T01:35:18.200Z,0
2017-04-11T01:36:18.222Z,0
2017-04-11T01:37:18.245Z,0
2017-04-11T01:38:18.260Z,0
2017-04-11T01:39:18.589Z,0
2017-04-11T01:40:18.298Z,0
2017-04-11T01:41:18.621Z,0
2017-04-11T01:42:18.342Z,0
2017-04-11T01:43:33.277Z,0
2017-04-11T01:45:18.706Z,0
2017-04-11T01:46:18.721Z,0
2017-04-11T01:47:18.438Z,0
2017-04-11T01:48:18.762Z,0
2017-04-11T01:49:18.779Z,0
2017-04-11T01:50:19.102Z,0
2017-04-11T01:51:18.821Z,0
2017-04-11T01:52:18.539Z,0
2017-04-11T01:53:18.557Z,0
2017-04-11T01:54:18.578Z,0
2017-04-11T01:55:18.905Z,0
2017-04-11T01:56:18.919Z,0
2017-04-11T01:58:33.578Z,0
2017-04-11T01:59:18.982Z,0
2017-04-11T02:00:33.321Z,0
2017-04-11T02:01:19.017Z,0
2017-04-11T02:02:33.658Z,0
2017-04-11T02:03:19.058Z,0
2017-04-11T02:04:18.773Z,0
2017-04-11T02:05:19.094Z,0
2017-04-11T02:06:19.113Z,0
2017-04-11T02:07:19.139Z,0
2017-04-11T02:08:19.163Z,0
2017-04-11T02:09:19.179Z,0
2017-04-11T02:11:19.212Z,0
2017-04-11T02:12:19.231Z,0
2017-04-11T02:14:19.272Z,0
2017-04-11T02:15:19.492Z,0
2017-04-11T02:16:19.308Z,0
2017-04-11T02:17:19.327Z,0
2017-04-11T02:18:19.198Z,0
2017-04-11T02:19:19.366Z,0
2017-04-11T02:20:19.389Z,0
2017-04-11T02:21:19.205Z,0
2017-04-11T02:22:19.427Z,0
2017-04-11T02:23:19.453Z,0
2017-04-11T02:24:19.468Z,0
2017-04-11T02:25:19.487Z,0
2017-04-11T02:26:19.198Z,0
2017-04-11T02:28:19.242Z,0
2017-04-11T02:29:19.262Z,0
2017-04-11T02:30:34.197Z,0
2017-04-11T02:31:19.602Z,0
2017-04-11T02:32:19.319Z,0
2017-04-11T02:33:19.648Z,0
2017-04-11T02:34:19.357Z,0
2017-04-11T02:35:19.685Z,0
2017-04-11T02:36:19.396Z,0
2017-04-11T02:37:19.418Z,0
2017-04-11T02:38:19.744Z,0
2017-04-11T02:39:34.373Z,0
2017-04-11T02:40:19.779Z,0
2017-04-11T02:41:19.798Z,0
2017-04-11T02:42:19.514Z,0
2017-04-11T02:43:34.451Z,0
2017-04-11T02:44:34.474Z,0
2017-04-11T02:45:19.873Z,0
2017-04-11T02:46:34.507Z,0
2017-04-11T02:47:19.913Z,0
2017-04-11T02:48:19.945Z,0
2017-04-11T02:49:19.954Z,0
2017-04-11T02:50:19.362Z,0
2017-04-11T02:51:19.992Z,0
2017-04-11T02:52:34.723Z,0
2017-04-11T02:53:20.027Z,0
2017-04-11T02:54:20.046Z,0
2017-04-11T02:55:20.064Z,0
2017-04-11T02:56:19.481Z,0
2017-04-11T02:57:19.803Z,0
2017-04-11T02:58:20.122Z,0
2017-04-11T02:59:20.142Z,0
2017-04-11T03:00:20.208Z,0
2017-04-11T03:01:20.188Z,0
2017-04-11T03:02:34.820Z,0
2017-04-11T03:03:20.224Z,0
2017-04-11T03:04:20.253Z,0
2017-04-11T03:05:34.881Z,0
2017-04-11T03:06:20.286Z,0
2017-04-11T03:07:20.297Z,0
2017-04-11T03:08:20.323Z,0
2017-04-11T03:09:20.337Z,0
2017-04-11T03:10:34.974Z,0
2017-04-11T03:11:34.991Z,0
2017-04-11T03:13:20.415Z,0
2017-04-11T03:14:20.435Z,0
2017-04-11T03:16:20.475Z,0
2017-04-11T03:17:20.493Z,0
2017-04-11T03:18:35.130Z,0
2017-04-11T03:19:20.533Z,0
2017-04-11T03:21:20.569Z,0
2017-04-11T03:22:20.589Z,0
2017-04-11T03:23:20.612Z,0
2017-04-11T03:24:20.627Z,0
2017-04-11T03:25:20.647Z,0
2017-04-11T03:26:20.667Z,0
2017-04-11T03:27:20.988Z,0
2017-04-11T03:28:35.319Z,0
2017-04-11T03:29:20.733Z,0
2017-04-11T03:30:35.395Z,0
2017-04-11T03:32:20.781Z,0
2017-04-11T03:33:35.418Z,0
2017-04-11T03:35:20.840Z,0
2017-04-11T03:36:20.859Z,0
2017-04-11T03:37:20.877Z,0
2017-04-11T03:38:20.939Z,0
2017-04-11T03:39:20.923Z,4
2017-04-11T03:40:35.555Z,4
2017-04-11T03:41:21.003Z,4
2017-04-11T03:42:20.975Z,0
2017-04-11T03:43:35.616Z,4
2017-04-11T03:44:21.017Z,4
2017-04-11T03:47:20.769Z,8
2017-04-11T03:48:21.094Z,8
2017-04-11T03:49:21.112Z,8
2017-04-11T03:50:21.130Z,12
2017-04-11T03:51:21.150Z,12
2017-04-11T03:52:21.167Z,12
2017-04-11T03:53:21.186Z,16
2017-04-11T03:54:21.206Z,20
2017-04-11T03:55:21.225Z,24
2017-04-11T03:56:35.559Z,28
2017-04-11T03:57:21.264Z,32
2017-04-11T03:58:21.284Z,36
2017-04-11T03:59:20.999Z,48
2017-04-11T04:00:21.321Z,52
2017-04-11T04:01:21.351Z,56
2017-04-11T04:02:21.359Z,68
2017-04-11T04:04:21.094Z,92
2017-04-11T04:05:36.034Z,108
2017-04-11T04:06:21.134Z,116
2017-04-11T04:07:21.463Z,136
2017-04-11T04:08:21.324Z,152
2017-04-11T04:09:21.514Z,172
2017-04-11T04:10:35.828Z,200
2017-04-11T04:11:21.235Z,216
2017-04-11T04:12:21.247Z,236
2017-04-11T04:13:21.267Z,264
2017-04-11T04:14:36.203Z,296
2017-04-11T04:15:21.610Z,320
2017-04-11T04:16:21.625Z,352
2017-04-11T04:18:21.663Z,416
2017-04-11T04:19:21.688Z,456
2017-04-11T04:21:36.336Z,544
2017-04-11T04:23:21.763Z,620
2017-04-11T04:24:21.778Z,672
2017-04-11T04:25:21.998Z,720
2017-04-11T04:26:21.817Z,776
2017-04-11T04:27:21.853Z,832
2017-04-11T04:28:21.551Z,892
2017-04-11T04:29:21.876Z,956
2017-04-11T04:30:21.889Z,1024
2017-04-11T04:31:36.526Z,1120
2017-04-11T04:32:21.625Z,1180
2017-04-11T04:34:21.968Z,1352
2017-04-11T04:35:21.985Z,1452
2017-04-11T04:36:21.704Z,1560
2017-04-11T04:37:36.656Z,1696
2017-04-11T04:38:22.041Z,1784
2017-04-11T04:39:22.082Z,1912
2017-04-11T04:40:22.082Z,2040
2017-04-11T04:41:22.099Z,2168
2017-04-11T04:42:22.120Z,2300
2017-04-11T04:43:22.138Z,2420
2017-04-11T04:44:22.157Z,2608
2017-04-11T04:45:36.794Z,2808
2017-04-11T04:46:36.813Z,2932
2017-04-11T04:47:36.831Z,3068
2017-04-11T04:48:36.849Z,3144
2017-04-11T04:49:36.867Z,4720
2017-04-11T04:51:22.296Z,10856
2017-04-11T04:52:22.314Z,13056
2017-04-11T04:53:36.947Z,12384
2017-04-11T04:54:22.351Z,5956
2017-04-11T04:55:22.371Z,12672
2017-04-11T04:56:22.388Z,12800
2017-04-11T04:57:22.456Z,12064
2017-04-11T04:58:22.434Z,12288
2017-04-11T04:59:22.146Z,7228
2017-04-11T05:00:22.167Z,4876
2017-04-11T05:01:22.492Z,3772
2017-04-11T05:02:22.215Z,3584
2017-04-11T05:03:22.528Z,5440
2017-04-11T05:04:22.245Z,20448
2017-04-11T05:05:22.581Z,5220
2017-04-11T05:07:22.615Z,21056
2017-04-11T05:08:37.258Z,16192
2017-04-11T05:09:22.653Z,6604
2017-04-11T05:10:22.673Z,3780
2017-04-11T05:11:22.390Z,3448
2017-04-11T05:12:37.336Z,3084
2017-04-11T05:13:22.736Z,3320
2017-04-11T05:14:22.755Z,3384
2017-04-11T05:15:22.476Z,3456
2017-04-11T05:16:22.797Z,3836
2017-04-11T05:17:22.814Z,4192
2017-04-11T05:19:22.855Z,4156
2017-04-11T05:20:22.877Z,4436
2017-04-11T05:22:22.917Z,5012
2017-04-11T05:23:22.938Z,5028
2017-04-11T05:25:22.979Z,3924
2017-04-11T05:26:23.001Z,3744
2017-04-11T05:27:23.020Z,3796
2017-04-11T05:28:23.038Z,3540
2017-04-11T05:29:23.060Z,3196
2017-04-11T05:30:23.086Z,2724
2017-04-11T05:31:37.719Z,3264
2017-04-11T05:32:23.120Z,3124
2017-04-11T05:33:37.757Z,2644
2017-04-11T05:34:23.159Z,2496
2017-04-11T05:35:23.179Z,2276
2017-04-11T05:36:23.199Z,2248
2017-04-11T05:37:23.227Z,2512
2017-04-11T05:38:23.242Z,2360
2017-04-11T05:39:23.260Z,2292
2017-04-11T05:40:37.908Z,2164
2017-04-11T05:41:23.303Z,2236
2017-04-11T05:42:23.325Z,2536
2017-04-11T05:43:23.345Z,2648
2017-04-11T05:44:23.362Z,2396
2017-04-11T05:45:23.381Z,2332
2017-04-11T05:46:23.406Z,2268
2017-04-11T05:47:23.118Z,2220
2017-04-11T05:48:23.443Z,2120
2017-04-11T05:50:38.097Z,2132
2017-04-11T05:51:23.505Z,2216
2017-04-11T05:52:23.519Z,2232
2017-04-11T05:53:23.238Z,2460
2017-04-11T05:54:23.567Z,2548
2017-04-11T05:55:38.207Z,2940
2017-04-11T05:56:38.216Z,2772
2017-04-11T05:57:23.621Z,2768
2017-04-11T05:58:23.646Z,2784
2017-04-11T05:59:23.658Z,2840
2017-04-11T06:00:38.397Z,2580
2017-04-11T06:01:23.698Z,2492
2017-04-11T06:02:23.721Z,2564
2017-04-11T06:03:24.083Z,2768
2017-04-11T06:04:23.765Z,3108
2017-04-11T06:05:38.395Z,3104
2017-04-11T06:06:23.799Z,3072
2017-04-11T06:07:23.919Z,3012
2017-04-11T06:09:23.859Z,3328
2017-04-11T06:10:23.877Z,3556
2017-04-11T06:11:23.896Z,3728
2017-04-11T06:12:38.537Z,3624
2017-04-11T06:13:24.590Z,3440
2017-04-11T06:14:23.961Z,3548
2017-04-11T06:15:23.979Z,3632
2017-04-11T06:16:24.004Z,3344
2017-04-11T06:17:24.027Z,3112
2017-04-11T06:18:38.659Z,3676
2017-04-11T06:19:24.066Z,3812
2017-04-11T06:20:24.080Z,3700
2017-04-11T06:21:24.098Z,3884
2017-04-11T06:22:24.119Z,4260
2017-04-11T06:23:23.841Z,4484
2017-04-11T06:24:24.166Z,5712
2017-04-11T06:25:38.796Z,7016
2017-04-11T06:26:24.201Z,8064
2017-04-11T06:27:24.225Z,10816
2017-04-11T06:28:38.559Z,17792
2017-04-11T06:30:23.978Z,23840
2017-04-11T06:31:24.302Z,11532
2017-04-11T06:32:24.020Z,8488
2017-04-11T06:33:24.041Z,7944
2017-04-11T06:34:24.059Z,6648
2017-04-11T06:35:24.414Z,5984
2017-04-11T06:36:24.412Z,4648
2017-04-11T06:37:24.430Z,5752
2017-04-11T06:38:24.652Z,7044
2017-04-11T06:39:24.168Z,9340
2017-04-11T06:40:24.497Z,7192
2017-04-11T06:41:24.210Z,6268
2017-04-11T06:43:39.183Z,5068
2017-04-11T06:44:24.276Z,5772
2017-04-11T06:45:24.596Z,8456
2017-04-11T06:46:24.622Z,6680
2017-04-11T06:47:24.642Z,5964
2017-04-11T06:48:39.289Z,4504
2017-04-11T06:49:24.683Z,3872
2017-04-11T06:50:24.402Z,3484
2017-04-11T06:51:24.724Z,2812
2017-04-11T06:52:39.362Z,3764
2017-04-11T06:53:24.466Z,6088
2017-04-11T06:54:24.791Z,10132
2017-04-11T06:55:24.818Z,18528
2017-04-11T06:56:39.601Z,18048
2017-04-11T06:58:24.879Z,14128
2017-04-11T06:59:24.896Z,11108
2017-04-11T07:00:24.917Z,7224
2017-04-11T07:01:24.938Z,6576
2017-04-11T07:02:24.655Z,6684
2017-04-11T07:03:39.598Z,5684
2017-04-11T07:04:25.001Z,4624
2017-04-11T07:05:25.020Z,4016
2017-04-11T07:06:25.044Z,3780
2017-04-11T07:07:25.060Z,3488
2017-04-11T07:09:25.105Z,3616
2017-04-11T07:10:24.828Z,4328
2017-04-11T07:11:25.147Z,6308
2017-04-11T07:12:25.172Z,9312
2017-04-11T07:13:25.189Z,10296
2017-04-11T07:14:25.208Z,9216
2017-04-11T07:15:39.847Z,8892
2017-04-11T07:16:25.254Z,10140
2017-04-11T07:17:25.271Z,15156
2017-04-11T07:18:25.292Z,5968
2017-04-11T07:19:25.317Z,6560
2017-04-11T07:20:25.335Z,6220
2017-04-11T07:21:25.057Z,5500
2017-04-11T07:22:25.075Z,5116
2017-04-11T07:23:25.095Z,4264
2017-04-11T07:24:40.036Z,3820
2017-04-11T07:25:25.177Z,3828
2017-04-11T07:26:25.165Z,3404
2017-04-11T07:27:25.185Z,3000
2017-04-11T07:28:25.203Z,3572
2017-04-11T07:29:25.223Z,3460
2017-04-11T07:30:25.551Z,4028
2017-04-11T07:31:40.184Z,4640
2017-04-11T07:32:25.287Z,4964
2017-04-11T07:33:25.304Z,5292
2017-04-11T07:34:25.634Z,5088
2017-04-11T07:35:25.655Z,5080
2017-04-11T07:36:25.677Z,4504
2017-04-11T07:37:25.700Z,3892
2017-04-11T07:38:40.334Z,3272
2017-04-11T07:39:25.734Z,3056
2017-04-11T07:40:25.765Z,3044
2017-04-11T07:41:25.795Z,3268
2017-04-11T07:42:40.423Z,3636
2017-04-11T07:43:40.439Z,3576
2017-04-11T07:44:40.459Z,2984
2017-04-11T07:45:25.862Z,2564
2017-04-11T07:46:25.884Z,2152
2017-04-11T07:47:39.917Z,2368
2017-04-11T07:48:25.621Z,2004
2017-04-11T07:49:25.342Z,1796
2017-04-11T07:50:25.967Z,1808
2017-04-11T07:51:25.989Z,1948
2017-04-11T07:52:26.009Z,1916
2017-04-11T07:53:26.029Z,1880
2017-04-11T07:54:26.056Z,2388
2017-04-11T07:55:40.688Z,2756
2017-04-11T07:56:26.099Z,2872
2017-04-11T07:57:40.726Z,3268
2017-04-11T08:00:26.473Z,2308
2017-04-11T08:02:26.216Z,2344
2017-04-11T08:03:40.855Z,1992
2017-04-11T08:04:26.259Z,2340
2017-04-11T08:05:26.277Z,3008
2017-04-11T08:06:26.293Z,3160
2017-04-11T08:07:26.323Z,3232
2017-04-11T08:08:40.957Z,2612
2017-04-11T08:09:26.358Z,2504
2017-04-11T08:10:26.073Z,2412
2017-04-11T08:11:26.435Z,2416
2017-04-11T08:12:25.813Z,2752
2017-04-11T08:13:26.436Z,3700
2017-04-11T08:14:26.458Z,3452
2017-04-11T08:15:26.479Z,2972
2017-04-11T08:17:26.521Z,3036
2017-04-11T08:18:41.156Z,3004
2017-04-11T08:20:41.237Z,6328
2017-04-11T08:21:26.616Z,7108
2017-04-11T08:22:26.627Z,5216
2017-04-11T08:23:26.641Z,4884
2017-04-11T08:24:41.285Z,5164
2017-04-11T08:25:26.683Z,5088
2017-04-11T08:26:26.703Z,4060
2017-04-11T08:27:26.726Z,4236
2017-04-11T08:28:41.361Z,3716
2017-04-11T08:29:26.462Z,3560
2017-04-11T08:30:26.801Z,3100
2017-04-11T08:31:41.424Z,2676
2017-04-11T08:32:26.531Z,2904
2017-04-11T08:34:26.872Z,3328
2017-04-11T08:35:26.888Z,2504
2017-04-11T08:37:26.930Z,1988
2017-04-11T08:38:26.953Z,2732
2017-04-11T08:39:41.848Z,3780
2017-04-11T08:40:26.992Z,3564
2017-04-11T08:41:27.011Z,4108
2017-04-11T08:42:27.029Z,4572
2017-04-11T08:43:27.049Z,4456
2017-04-11T08:44:27.424Z,4208
2017-04-11T08:45:27.094Z,4764
2017-04-11T08:46:27.113Z,5676
2017-04-11T08:47:27.140Z,6928
2017-04-11T08:48:27.157Z,8280
2017-04-11T08:49:27.177Z,8448
2017-04-11T08:50:41.813Z,8344
2017-04-11T08:51:27.216Z,9516
2017-04-11T08:52:27.238Z,10452
2017-04-11T08:53:27.262Z,12516
2017-04-11T08:54:27.276Z,19680
2017-04-11T08:55:27.301Z,14392
2017-04-11T08:56:27.571Z,23744
2017-04-11T08:57:27.346Z,22080
2017-04-11T08:58:27.061Z,14564
2017-04-11T08:59:42.005Z,22240
2017-04-11T09:00:27.413Z,22016
2017-04-11T09:01:27.430Z,11392
2017-04-11T09:02:27.450Z,15220
2017-04-11T09:03:42.089Z,11848
2017-04-11T09:04:42.112Z,11600
2017-04-11T09:05:27.523Z,18368
2017-04-11T09:06:42.165Z,20800
2017-04-11T09:07:27.267Z,14332
2017-04-11T09:08:27.588Z,19200
2017-04-11T09:09:27.612Z,20576
2017-04-11T09:10:27.641Z,23488
2017-04-11T09:11:27.661Z,12512
2017-04-11T09:12:27.685Z,19392
2017-04-11T09:13:42.327Z,10380
2017-04-11T09:14:27.737Z,7616
2017-04-11T09:15:42.373Z,4696
2017-04-11T09:16:42.397Z,4724
2017-04-11T09:17:27.810Z,5972
2017-04-11T09:19:27.856Z,11772
2017-04-11T09:21:27.898Z,12720
2017-04-11T09:22:42.538Z,12912
2017-04-11T09:23:27.947Z,13616
2017-04-11T09:24:28.010Z,15244
2017-04-11T09:25:28.000Z,16784
2017-04-11T09:26:28.013Z,14008
2017-04-11T09:27:28.071Z,12792
2017-04-11T09:28:28.066Z,12504
2017-04-11T09:29:27.782Z,11684
2017-04-11T09:30:28.115Z,11612
2017-04-11T09:32:28.161Z,10752
2017-04-11T09:33:28.182Z,10228
2017-04-11T09:35:27.925Z,10376
2017-04-11T09:36:28.251Z,9368
2017-04-11T09:37:28.312Z,8152
2017-04-11T09:38:57.537Z,7312
2017-04-11T09:39:28.021Z,6804
2017-04-11T09:40:28.043Z,5496
2017-04-11T09:41:28.434Z,5196
2017-04-11T09:42:43.011Z,5268
2017-04-11T09:43:28.420Z,5180
2017-04-11T09:44:28.437Z,5304
2017-04-11T09:45:28.456Z,5224
2017-04-11T09:46:28.177Z,4504
2017-04-11T09:47:28.504Z,3816
2017-04-11T09:49:43.167Z,3056
2017-04-11T09:50:43.193Z,3004
2017-04-11T09:51:28.597Z,2764
2017-04-11T09:52:28.619Z,2648
2017-04-11T09:53:42.955Z,2684
2017-04-11T09:54:28.364Z,2680
2017-04-11T09:56:28.405Z,2832
2017-04-11T09:57:28.745Z,2832
2017-04-11T09:58:43.071Z,2876
2017-04-11T09:59:28.469Z,3240
2017-04-11T10:00:28.793Z,4144
2017-04-11T10:01:28.512Z,4720
2017-04-11T10:02:28.837Z,5972
2017-04-11T10:03:28.859Z,13376
2017-04-11T10:04:28.880Z,11592
2017-04-11T10:07:28.643Z,20608
2017-04-11T10:08:28.362Z,19648
2017-04-11T10:09:28.991Z,17888
2017-04-11T10:11:29.029Z,16216
2017-04-11T10:12:29.050Z,15992
2017-04-11T10:13:29.073Z,15608
2017-04-11T10:14:29.098Z,15620
2017-04-11T10:15:43.132Z,14996
2017-04-11T10:16:28.841Z,15048
2017-04-11T10:17:29.165Z,15280
2017-04-11T10:18:43.806Z,6548
2017-04-11T10:19:28.605Z,6284
2017-04-11T10:20:28.634Z,6176
2017-04-11T10:22:28.984Z,8368
2017-04-11T10:23:29.004Z,8828
2017-04-11T10:24:29.026Z,15780
2017-04-11T10:25:43.967Z,8168
2017-04-11T10:26:29.076Z,16128
2017-04-11T10:27:29.397Z,14016
2017-04-11T10:28:29.429Z,14836
2017-04-11T10:29:29.454Z,6484
2017-04-11T10:30:29.164Z,6988
2017-04-11T10:31:28.885Z,9424
2017-04-11T10:32:29.514Z,7912
2017-04-11T10:33:29.539Z,15920
2017-04-11T10:34:44.186Z,9020
2017-04-11T10:35:29.280Z,8600
2017-04-11T10:36:29.302Z,16572
2017-04-11T10:37:30.182Z,17120
2017-04-11T10:38:29.662Z,9972
2017-04-11T10:39:29.371Z,7292
2017-04-11T10:40:29.697Z,7192
2017-04-11T10:41:44.035Z,7332
2017-04-11T10:42:29.747Z,7396
2017-04-11T10:43:29.770Z,6152
2017-04-11T10:44:29.793Z,5460
2017-04-11T10:45:29.817Z,5036
2017-04-11T10:46:29.838Z,4764
2017-04-11T10:47:29.863Z,5212
2017-04-11T10:48:29.937Z,5180
2017-04-11T10:49:29.609Z,6416
2017-04-11T10:50:44.548Z,7528
2017-04-11T10:51:44.269Z,7556
2017-04-11T10:52:29.982Z,8264
2017-04-11T10:53:29.695Z,7956
2017-04-11T10:55:30.049Z,6072
2017-04-11T10:57:44.706Z,6184
2017-04-11T10:59:30.145Z,5676
2017-04-11T11:00:29.858Z,5124
2017-04-11T11:01:30.182Z,4992
2017-04-11T11:02:30.202Z,4568
2017-04-11T11:03:30.226Z,4224
2017-04-11T11:04:44.868Z,4288
2017-04-11T11:05:30.275Z,4556
2017-04-11T11:06:44.607Z,5128
2017-04-11T11:07:30.012Z,5772
2017-04-11T11:08:30.347Z,6968
2017-04-11T11:09:30.070Z,9456
2017-04-11T11:10:30.083Z,8652
2017-04-11T11:11:30.408Z,8844
2017-04-11T11:12:30.123Z,10552
2017-04-11T11:13:45.067Z,9172
2017-04-11T11:14:30.472Z,8952
2017-04-11T11:15:30.522Z,8372
2017-04-11T11:16:44.836Z,7720
2017-04-11T11:17:30.539Z,7976
2017-04-11T11:18:30.563Z,7328
2017-04-11T11:19:30.588Z,5348
2017-04-11T11:20:30.003Z,4964
2017-04-11T11:21:30.630Z,4944
2017-04-11T11:22:45.268Z,5096
2017-04-11T11:23:30.675Z,5580
2017-04-11T11:24:30.393Z,7984
2017-04-11T11:26:30.464Z,8564
2017-04-11T11:29:00.028Z,12268
2017-04-11T11:29:30.512Z,10672
2017-04-11T11:30:30.529Z,10956
2017-04-11T11:31:30.856Z,11496
2017-04-11T11:32:30.879Z,12328
2017-04-11T11:33:30.600Z,10684
2017-04-11T11:34:30.925Z,10500
2017-04-11T11:35:30.953Z,10196
2017-04-11T11:36:30.668Z,9580
2017-04-11T11:37:45.611Z,9304
2017-04-11T11:38:45.634Z,8744
2017-04-11T11:40:31.064Z,8728
2017-04-11T11:41:31.086Z,9476
2017-04-11T11:42:30.818Z,9348
2017-04-11T11:43:30.837Z,9416
2017-04-11T11:44:30.853Z,9364
2017-04-11T11:45:31.377Z,9924
2017-04-11T11:46:31.201Z,10240
2017-04-11T11:47:31.223Z,10172
2017-04-11T11:48:31.252Z,9656
2017-04-11T11:49:30.964Z,9016
2017-04-11T11:50:30.988Z,8060
2017-04-11T11:51:31.017Z,7168
2017-04-11T11:52:31.345Z,6688
2017-04-11T11:53:31.360Z,6128
2017-04-11T11:54:31.390Z,5768
2017-04-11T11:55:31.104Z,5448
2017-04-11T11:56:46.047Z,5232
2017-04-11T11:57:31.151Z,5028
2017-04-11T11:58:31.477Z,4844
2017-04-11T11:59:31.194Z,4836
2017-04-11T12:00:46.143Z,5104
2017-04-11T12:01:31.246Z,5392
2017-04-11T12:02:31.265Z,5972
2017-04-11T12:03:31.598Z,6716
2017-04-11T12:04:31.308Z,7468
2017-04-11T12:05:31.649Z,7652
2017-04-11T12:06:31.663Z,8316
2017-04-11T12:07:31.378Z,8868
2017-04-11T12:08:31.705Z,9152
2017-04-11T12:09:31.735Z,9264
2017-04-11T12:10:31.749Z,8548
2017-04-11T12:11:46.391Z,8316
2017-04-11T12:12:46.112Z,7836
2017-04-11T12:13:46.130Z,8952
2017-04-11T12:14:46.457Z,9176
2017-04-11T12:15:31.560Z,8040
2017-04-11T12:16:46.502Z,7920
2017-04-11T12:17:31.607Z,8628
2017-04-11T12:18:31.940Z,7672
2017-04-11T12:19:31.955Z,6436
2017-04-11T12:20:31.678Z,5708
2017-04-11T12:21:31.697Z,6160
2017-04-11T12:22:32.021Z,7160
2017-04-11T12:23:31.739Z,6432
2017-04-11T12:24:32.069Z,7092
2017-04-11T12:25:31.791Z,6904
2017-04-11T12:26:46.731Z,6360
2017-04-11T12:27:46.763Z,6272
2017-04-11T12:28:46.778Z,4564
2017-04-11T12:29:32.180Z,5324
2017-04-11T12:30:32.205Z,4444
2017-04-11T12:31:31.925Z,4236
2017-04-11T12:32:46.260Z,6332
2017-04-11T12:33:31.664Z,6268
2017-04-11T12:34:32.299Z,6204
2017-04-11T12:35:31.712Z,6116
2017-04-11T12:36:32.037Z,6068
2017-04-11T12:37:32.366Z,6152
2017-04-11T12:38:32.389Z,6156
2017-04-11T12:39:47.026Z,6508
2017-04-11T12:40:32.427Z,6924
2017-04-11T12:41:32.459Z,7308
2017-04-11T12:42:32.173Z,7776
2017-04-11T12:43:32.500Z,8312
2017-04-11T12:44:32.526Z,9124
2017-04-11T12:45:32.544Z,9748
2017-04-11T12:46:32.566Z,10140
2017-04-11T12:47:32.593Z,10068
2017-04-11T12:48:47.226Z,9484
2017-04-11T12:49:32.682Z,9960
2017-04-11T12:50:32.660Z,9764
2017-04-11T12:51:32.680Z,9620
2017-04-11T12:52:32.706Z,8960
2017-04-11T12:53:32.725Z,9280
2017-04-11T12:54:32.748Z,9888
2017-04-11T12:55:32.776Z,10504
2017-04-11T12:56:47.413Z,10976
2017-04-11T12:57:32.822Z,9820
2017-04-11T12:58:32.844Z,11288
2017-04-11T12:59:32.868Z,10912
2017-04-11T13:00:32.890Z,9124
2017-04-11T13:02:32.938Z,7720
2017-04-11T13:03:47.575Z,6020
2017-04-11T13:04:32.988Z,5860
2017-04-11T13:05:33.004Z,5608
2017-04-11T13:06:33.032Z,5552
2017-04-11T13:07:33.085Z,5852
2017-04-11T13:08:33.075Z,5896
2017-04-11T13:09:47.719Z,6888
2017-04-11T13:10:33.123Z,8672
2017-04-11T13:11:33.148Z,8676
2017-04-11T13:12:32.864Z,8564
2017-04-11T13:13:33.192Z,10108
2017-04-11T13:14:33.211Z,10752
2017-04-11T13:15:33.236Z,8968
2017-04-11T13:18:33.351Z,7776
2017-04-11T13:19:33.333Z,7472
2017-04-11T13:20:33.048Z,7088
2017-04-11T13:21:33.377Z,6428
2017-04-11T13:22:33.099Z,6588
2017-04-11T13:23:33.426Z,6740
2017-04-11T13:24:33.449Z,6824
2017-04-11T13:25:33.469Z,7056
2017-04-11T13:26:33.498Z,7020
2017-04-11T13:27:33.522Z,7028
2017-04-11T13:28:33.561Z,6848
2017-04-11T13:29:33.571Z,7020
2017-04-11T13:30:33.588Z,7520
2017-04-11T13:31:33.612Z,8176
2017-04-11T13:32:33.634Z,8464
2017-04-11T13:33:33.660Z,8328
2017-04-11T13:34:33.677Z,8008
2017-04-11T13:35:48.319Z,9620
2017-04-11T13:36:33.779Z,9628
2017-04-11T13:37:33.760Z,9188
2017-04-11T13:38:33.778Z,8424
2017-04-11T13:39:33.797Z,9216
2017-04-11T13:40:33.820Z,6788
2017-04-11T13:41:33.842Z,7156
2017-04-11T13:42:48.487Z,7168
2017-04-11T13:43:33.890Z,5956
2017-04-11T13:44:33.912Z,7900
2017-04-11T13:45:33.934Z,6224
2017-04-11T13:46:33.960Z,8620
2017-04-11T13:50:33.751Z,7488
2017-04-11T13:51:48.698Z,7288
2017-04-11T13:52:34.107Z,7176
2017-04-11T13:53:34.125Z,7116
2017-04-11T13:54:34.149Z,7188
2017-04-11T13:55:34.173Z,7304
2017-04-11T13:56:33.891Z,7352
2017-04-11T13:57:33.922Z,7488
2017-04-11T13:58:34.243Z,7792
2017-04-11T13:59:34.265Z,8204
2017-04-11T14:00:33.985Z,8568
2017-04-11T14:01:48.928Z,9104
2017-04-11T14:02:34.333Z,9392
2017-04-11T14:03:34.359Z,9724
2017-04-11T14:05:34.405Z,9836
2017-04-11T14:06:34.123Z,9188
2017-04-11T14:07:49.078Z,9548
2017-04-11T14:08:34.477Z,9928
2017-04-11T14:09:34.502Z,9928
2017-04-11T14:10:34.773Z,9776
2017-04-11T14:11:34.549Z,9496
2017-04-11T14:12:34.269Z,9056
2017-04-11T14:13:34.599Z,8236
2017-04-11T14:14:48.932Z,8008
2017-04-11T14:15:34.639Z,5332
2017-04-11T14:16:34.665Z,7688
2017-04-11T14:17:34.688Z,7876
2017-04-11T14:18:34.410Z,5292
2017-04-11T14:19:34.431Z,5572
2017-04-11T14:20:34.764Z,5876
2017-04-11T14:21:34.781Z,5912
2017-04-11T14:22:34.504Z,5704
2017-04-11T14:23:49.448Z,5224
2017-04-11T14:24:34.549Z,4944
2017-04-11T14:25:34.887Z,4704
2017-04-11T14:26:34.902Z,4748
2017-04-11T14:27:34.924Z,4816
2017-04-11T14:28:34.949Z,4916
2017-04-11T14:29:34.670Z,4996
2017-04-11T14:30:34.994Z,4932
2017-04-11T14:31:35.015Z,5164
2017-04-11T14:32:35.042Z,5392
2017-04-11T14:33:34.763Z,5628
2017-04-11T14:34:35.095Z,5672
2017-04-11T14:36:35.141Z,6740
2017-04-11T14:38:49.799Z,6356
2017-04-11T14:39:34.918Z,6256
2017-04-11T14:40:35.225Z,8432
2017-04-11T14:41:35.248Z,8712
2017-04-11T14:42:35.272Z,8836
2017-04-11T14:43:35.297Z,8808
2017-04-11T14:44:35.318Z,8580